Terminal Aerodrome Forecast
Issued by NWS Louisville, KY

Home | Current Version | Previous Version | Text Only | Print | Product List | Glossary On
Versions: 1 2 3 4 5 6 7 8 9 10 11 12 13 14 15 16 17 18 19 20 21
000
FTUS43 KLMK 172201 AAA
TAFLEX
TAF AMD
KLEX 172201Z 1722/1818 VRB04KT 5SM -DZ BR OVC021
      TEMPO 1800/1801 OVC015
     FM180100 18005KT P6SM OVC015
     FM180600 19007KT 5SM -DZ BR OVC007
     FM181600 22008KT 6SM BR OVC008=

USA.gov is the U.S. government's official web portal to all federal, state and local government web resources and services.